sensor_id;sensor_type;location;lat;lon;timestamp;P1;durP1;ratioP1;P2;durP2;ratioP2
48945;SDS011;34999;50.940;3.998;2022-11-04T00:01:02;6.57;;;4.40;;
48945;SDS011;34999;50.940;3.998;2022-11-04T00:03:31;11.63;;;4.13;;
48945;SDS011;34999;50.940;3.998;2022-11-04T00:06:00;7.03;;;4.03;;
48945;SDS011;34999;50.940;3.998;2022-11-04T00:08:28;7.97;;;3.90;;
48945;SDS011;34999;50.940;3.998;2022-11-04T00:10:57;8.37;;;4.00;;
48945;SDS011;34999;50.940;3.998;2022-11-04T00:13:44;6.93;;;3.60;;
48945;SDS011;34999;50.940;3.998;2022-11-04T00:16:15;5.87;;;3.97;;
48945;SDS011;34999;50.940;3.998;2022-11-04T00:19:00;7.23;;;3.70;;
48945;SDS011;34999;50.940;3.998;2022-11-04T00:21:29;4.07;;;3.33;;
48945;SDS011;34999;50.940;3.998;2022-11-04T00:24:12;11.27;;;4.00;;
48945;SDS011;34999;50.940;3.998;2022-11-04T00:26:58;8.20;;;3.67;;
48945;SDS011;34999;50.940;3.998;2022-11-04T00:29:44;7.00;;;3.90;;
48945;SDS011;34999;50.940;3.998;2022-11-04T00:32:14;5.80;;;3.60;;
48945;SDS011;34999;50.940;3.998;2022-11-04T00:34:59;14.93;;;3.83;;
48945;SDS011;34999;50.940;3.998;2022-11-04T00:37:27;6.60;;;3.70;;
48945;SDS011;34999;50.940;3.998;2022-11-04T00:39:56;6.57;;;3.70;;
48945;SDS011;34999;50.940;3.998;2022-11-04T00:42:24;19.03;;;3.60;;
48945;SDS011;34999;50.940;3.998;2022-11-04T00:44:52;8.80;;;3.63;;
48945;SDS011;34999;50.940;3.998;2022-11-04T00:47:22;9.43;;;3.60;;
48945;SDS011;34999;50.940;3.998;2022-11-04T00:49:51;7.57;;;3.60;;
48945;SDS011;34999;50.940;3.998;2022-11-04T00:52:20;4.70;;;3.40;;
48945;SDS011;34999;50.940;3.998;2022-11-04T00:54:48;7.63;;;3.03;;
48945;SDS011;34999;50.940;3.998;2022-11-04T00:57:16;10.70;;;3.37;;
48945;SDS011;34999;50.940;3.998;2022-11-04T00:59:45;8.43;;;3.47;;
48945;SDS011;34999;50.940;3.998;2022-11-04T01:02:13;9.43;;;3.47;;
48945;SDS011;34999;50.940;3.998;2022-11-04T01:04:43;14.77;;;3.40;;
48945;SDS011;34999;50.940;3.998;2022-11-04T01:07:13;9.43;;;3.07;;
48945;SDS011;34999;50.940;3.998;2022-11-04T01:09:41;10.03;;;2.97;;
48945;SDS011;34999;50.940;3.998;2022-11-04T01:12:10;6.57;;;3.03;;
48945;SDS011;34999;50.940;3.998;2022-11-04T01:14:38;8.10;;;3.47;;
48945;SDS011;34999;50.940;3.998;2022-11-04T01:17:06;7.63;;;2.87;;
48945;SDS011;34999;50.940;3.998;2022-11-04T01:19:34;6.63;;;3.27;;
48945;SDS011;34999;50.940;3.998;2022-11-04T01:22:04;7.87;;;3.10;;
48945;SDS011;34999;50.940;3.998;2022-11-04T01:24:33;9.23;;;3.10;;
48945;SDS011;34999;50.940;3.998;2022-11-04T01:27:01;14.60;;;3.33;;
48945;SDS011;34999;50.940;3.998;2022-11-04T01:29:29;10.60;;;2.87;;
48945;SDS011;34999;50.940;3.998;2022-11-04T01:31:58;8.43;;;3.23;;
48945;SDS011;34999;50.940;3.998;2022-11-04T01:34:26;10.27;;;3.10;;
48945;SDS011;34999;50.940;3.998;2022-11-04T01:36:54;9.23;;;3.00;;
48945;SDS011;34999;50.940;3.998;2022-11-04T01:39:24;11.60;;;3.20;;
48945;SDS011;34999;50.940;3.998;2022-11-04T01:41:52;8.60;;;3.47;;
48945;SDS011;34999;50.940;3.998;2022-11-04T01:47:18;9.60;;;3.10;;
48945;SDS011;34999;50.940;3.998;2022-11-04T01:49:49;11.47;;;3.77;;
48945;SDS011;34999;50.940;3.998;2022-11-04T01:52:22;12.73;;;3.03;;
48945;SDS011;34999;50.940;3.998;2022-11-04T01:54:56;12.27;;;3.30;;
48945;SDS011;34999;50.940;3.998;2022-11-04T01:57:29;13.10;;;3.43;;
48945;SDS011;34999;50.940;3.998;2022-11-04T02:00:03;4.93;;;2.73;;
48945;SDS011;34999;50.940;3.998;2022-11-04T02:02:34;6.83;;;2.77;;
48945;SDS011;34999;50.940;3.998;2022-11-04T02:05:07;10.17;;;3.57;;
48945;SDS011;34999;50.940;3.998;2022-11-04T02:07:38;13.03;;;3.43;;
48945;SDS011;34999;50.940;3.998;2022-11-04T02:10:07;6.90;;;2.97;;
48945;SDS011;34999;50.940;3.998;2022-11-04T02:12:37;13.83;;;3.03;;
48945;SDS011;34999;50.940;3.998;2022-11-04T02:15:17;9.17;;;2.83;;
48945;SDS011;34999;50.940;3.998;2022-11-04T02:17:52;11.10;;;2.90;;
48945;SDS011;34999;50.940;3.998;2022-11-04T02:20:43;9.77;;;3.10;;
48945;SDS011;34999;50.940;3.998;2022-11-04T02:23:31;7.70;;;2.90;;
48945;SDS011;34999;50.940;3.998;2022-11-04T02:29:30;12.40;;;3.03;;
48945;SDS011;34999;50.940;3.998;2022-11-04T02:32:15;16.10;;;2.90;;
48945;SDS011;34999;50.940;3.998;2022-11-04T02:34:51;13.83;;;3.43;;
48945;SDS011;34999;50.940;3.998;2022-11-04T02:37:27;9.73;;;2.90;;
48945;SDS011;34999;50.940;3.998;2022-11-04T02:40:04;12.07;;;3.10;;
48945;SDS011;34999;50.940;3.998;2022-11-04T02:42:42;7.43;;;3.00;;
48945;SDS011;34999;50.940;3.998;2022-11-04T02:45:19;19.43;;;3.23;;
48945;SDS011;34999;50.940;3.998;2022-11-04T02:47:49;10.80;;;3.07;;
48945;SDS011;34999;50.940;3.998;2022-11-04T02:50:22;17.43;;;3.53;;
48945;SDS011;34999;50.940;3.998;2022-11-04T02:52:57;11.00;;;3.03;;
48945;SDS011;34999;50.940;3.998;2022-11-04T02:55:30;12.63;;;3.17;;
48945;SDS011;34999;50.940;3.998;2022-11-04T02:58:03;13.20;;;3.30;;
48945;SDS011;34999;50.940;3.998;2022-11-04T03:00:37;16.43;;;3.67;;
48945;SDS011;34999;50.940;3.998;2022-11-04T03:03:10;13.23;;;3.83;;
48945;SDS011;34999;50.940;3.998;2022-11-04T03:05:41;12.10;;;3.27;;
48945;SDS011;34999;50.940;3.998;2022-11-04T03:08:14;14.87;;;3.77;;
48945;SDS011;34999;50.940;3.998;2022-11-04T03:10:47;14.77;;;3.53;;
48945;SDS011;34999;50.940;3.998;2022-11-04T03:13:20;8.83;;;3.53;;
48945;SDS011;34999;50.940;3.998;2022-11-04T03:15:54;9.13;;;3.53;;
48945;SDS011;34999;50.940;3.998;2022-11-04T03:18:28;4.43;;;3.17;;
48945;SDS011;34999;50.940;3.998;2022-11-04T03:21:03;8.93;;;3.40;;
48945;SDS011;34999;50.940;3.998;2022-11-04T03:23:35;12.43;;;3.33;;
48945;SDS011;34999;50.940;3.998;2022-11-04T03:26:06;13.67;;;3.27;;
48945;SDS011;34999;50.940;3.998;2022-11-04T03:28:41;10.77;;;3.77;;
48945;SDS011;34999;50.940;3.998;2022-11-04T03:31:16;13.03;;;3.80;;
48945;SDS011;34999;50.940;3.998;2022-11-04T03:33:51;13.83;;;3.80;;
48945;SDS011;34999;50.940;3.998;2022-11-04T03:36:21;11.33;;;3.87;;
48945;SDS011;34999;50.940;3.998;2022-11-04T03:38:50;10.67;;;3.37;;
48945;SDS011;34999;50.940;3.998;2022-11-04T03:41:21;19.73;;;4.07;;
48945;SDS011;34999;50.940;3.998;2022-11-04T03:43:56;12.90;;;3.73;;
48945;SDS011;34999;50.940;3.998;2022-11-04T03:46:25;17.43;;;4.07;;
48945;SDS011;34999;50.940;3.998;2022-11-04T03:48:54;11.03;;;3.87;;
48945;SDS011;34999;50.940;3.998;2022-11-04T03:51:24;13.57;;;4.87;;
48945;SDS011;34999;50.940;3.998;2022-11-04T03:53:53;12.30;;;4.30;;
48945;SDS011;34999;50.940;3.998;2022-11-04T03:56:28;16.87;;;4.17;;
48945;SDS011;34999;50.940;3.998;2022-11-04T03:59:20;12.03;;;4.60;;
48945;SDS011;34999;50.940;3.998;2022-11-04T04:02:01;18.60;;;4.57;;
48945;SDS011;34999;50.940;3.998;2022-11-04T04:04:37;15.37;;;4.77;;
48945;SDS011;34999;50.940;3.998;2022-11-04T04:07:10;14.50;;;4.80;;
48945;SDS011;34999;50.940;3.998;2022-11-04T04:09:42;14.03;;;4.50;;
48945;SDS011;34999;50.940;3.998;2022-11-04T04:12:15;11.97;;;5.27;;
48945;SDS011;34999;50.940;3.998;2022-11-04T04:14:53;6.23;;;4.60;;
48945;SDS011;34999;50.940;3.998;2022-11-04T04:17:31;12.87;;;5.00;;
48945;SDS011;34999;50.940;3.998;2022-11-04T04:20:04;16.77;;;5.23;;
48945;SDS011;34999;50.940;3.998;2022-11-04T04:22:39;13.50;;;5.03;;
48945;SDS011;34999;50.940;3.998;2022-11-04T04:25:10;14.33;;;5.70;;
48945;SDS011;34999;50.940;3.998;2022-11-04T04:27:58;13.77;;;5.77;;
48945;SDS011;34999;50.940;3.998;2022-11-04T04:30:28;18.10;;;5.17;;
48945;SDS011;34999;50.940;3.998;2022-11-04T04:32:59;21.30;;;5.87;;
48945;SDS011;34999;50.940;3.998;2022-11-04T04:35:33;14.60;;;5.97;;
48945;SDS011;34999;50.940;3.998;2022-11-04T04:38:13;19.07;;;6.03;;
48945;SDS011;34999;50.940;3.998;2022-11-04T04:41:03;13.77;;;6.00;;
48945;SDS011;34999;50.940;3.998;2022-11-04T04:43:53;11.57;;;5.73;;
48945;SDS011;34999;50.940;3.998;2022-11-04T04:46:39;15.10;;;6.53;;
48945;SDS011;34999;50.940;3.998;2022-11-04T04:49:11;18.83;;;6.43;;
48945;SDS011;34999;50.940;3.998;2022-11-04T04:51:39;16.30;;;6.50;;
48945;SDS011;34999;50.940;3.998;2022-11-04T04:54:11;16.47;;;6.40;;
48945;SDS011;34999;50.940;3.998;2022-11-04T04:56:40;14.50;;;6.13;;
48945;SDS011;34999;50.940;3.998;2022-11-04T04:59:08;18.07;;;7.37;;
48945;SDS011;34999;50.940;3.998;2022-11-04T05:01:36;11.13;;;6.13;;
48945;SDS011;34999;50.940;3.998;2022-11-04T05:04:05;14.47;;;6.60;;
48945;SDS011;34999;50.940;3.998;2022-11-04T05:06:35;13.63;;;7.13;;
48945;SDS011;34999;50.940;3.998;2022-11-04T05:09:03;13.43;;;6.03;;
48945;SDS011;34999;50.940;3.998;2022-11-04T05:11:31;16.20;;;7.00;;
48945;SDS011;34999;50.940;3.998;2022-11-04T05:14:00;22.03;;;7.47;;
48945;SDS011;34999;50.940;3.998;2022-11-04T05:16:28;16.23;;;6.90;;
48945;SDS011;34999;50.940;3.998;2022-11-04T05:19:02;20.53;;;7.27;;
48945;SDS011;34999;50.940;3.998;2022-11-04T05:21:30;19.40;;;8.13;;
48945;SDS011;34999;50.940;3.998;2022-11-04T05:23:59;21.23;;;7.40;;
48945;SDS011;34999;50.940;3.998;2022-11-04T05:26:28;14.47;;;7.10;;
48945;SDS011;34999;50.940;3.998;2022-11-04T05:28:56;17.37;;;7.57;;
48945;SDS011;34999;50.940;3.998;2022-11-04T05:31:24;19.37;;;7.70;;
48945;SDS011;34999;50.940;3.998;2022-11-04T05:33:53;23.67;;;8.10;;
48945;SDS011;34999;50.940;3.998;2022-11-04T05:36:21;16.40;;;8.07;;
48945;SDS011;34999;50.940;3.998;2022-11-04T05:38:50;15.70;;;7.53;;
48945;SDS011;34999;50.940;3.998;2022-11-04T05:41:22;17.70;;;8.07;;
48945;SDS011;34999;50.940;3.998;2022-11-04T05:43:54;16.10;;;8.57;;
48945;SDS011;34999;50.940;3.998;2022-11-04T05:46:23;16.33;;;7.90;;
48945;SDS011;34999;50.940;3.998;2022-11-04T05:48:52;21.10;;;8.80;;
48945;SDS011;34999;50.940;3.998;2022-11-04T05:51:21;16.83;;;8.47;;
48945;SDS011;34999;50.940;3.998;2022-11-04T05:53:50;28.87;;;10.00;;
48945;SDS011;34999;50.940;3.998;2022-11-04T05:56:19;21.83;;;10.13;;
48945;SDS011;34999;50.940;3.998;2022-11-04T05:58:49;20.80;;;8.80;;
48945;SDS011;34999;50.940;3.998;2022-11-04T06:01:27;23.47;;;9.00;;
48945;SDS011;34999;50.940;3.998;2022-11-04T06:03:58;24.93;;;9.30;;
48945;SDS011;34999;50.940;3.998;2022-11-04T06:06:27;20.90;;;9.13;;
48945;SDS011;34999;50.940;3.998;2022-11-04T06:08:56;18.77;;;8.43;;
48945;SDS011;34999;50.940;3.998;2022-11-04T06:11:25;27.23;;;8.97;;
48945;SDS011;34999;50.940;3.998;2022-11-04T06:13:57;16.77;;;8.23;;
48945;SDS011;34999;50.940;3.998;2022-11-04T06:16:26;21.40;;;8.50;;
48945;SDS011;34999;50.940;3.998;2022-11-04T06:18:54;19.37;;;8.47;;
48945;SDS011;34999;50.940;3.998;2022-11-04T06:21:31;22.70;;;9.07;;
48945;SDS011;34999;50.940;3.998;2022-11-04T06:24:00;16.00;;;7.97;;
48945;SDS011;34999;50.940;3.998;2022-11-04T06:26:28;14.40;;;7.63;;
48945;SDS011;34999;50.940;3.998;2022-11-04T06:28:58;23.27;;;8.33;;
48945;SDS011;34999;50.940;3.998;2022-11-04T06:31:26;18.30;;;7.97;;
48945;SDS011;34999;50.940;3.998;2022-11-04T06:33:55;19.17;;;7.90;;
48945;SDS011;34999;50.940;3.998;2022-11-04T06:36:23;17.47;;;7.50;;
48945;SDS011;34999;50.940;3.998;2022-11-04T06:38:51;17.50;;;8.13;;
48945;SDS011;34999;50.940;3.998;2022-11-04T06:41:27;18.47;;;8.13;;
48945;SDS011;34999;50.940;3.998;2022-11-04T06:43:55;19.60;;;8.07;;
48945;SDS011;34999;50.940;3.998;2022-11-04T06:46:25;18.97;;;7.60;;
48945;SDS011;34999;50.940;3.998;2022-11-04T06:48:55;18.97;;;7.50;;
48945;SDS011;34999;50.940;3.998;2022-11-04T06:51:24;16.53;;;7.43;;
48945;SDS011;34999;50.940;3.998;2022-11-04T06:53:52;18.63;;;7.60;;
48945;SDS011;34999;50.940;3.998;2022-11-04T06:56:21;16.87;;;8.27;;
48945;SDS011;34999;50.940;3.998;2022-11-04T06:58:49;15.80;;;7.57;;
48945;SDS011;34999;50.940;3.998;2022-11-04T07:01:19;24.50;;;9.80;;
48945;SDS011;34999;50.940;3.998;2022-11-04T07:03:51;29.67;;;12.27;;
48945;SDS011;34999;50.940;3.998;2022-11-04T07:06:20;85.30;;;38.33;;
48945;SDS011;34999;50.940;3.998;2022-11-04T07:08:50;72.53;;;35.23;;
48945;SDS011;34999;50.940;3.998;2022-11-04T07:11:20;61.33;;;30.90;;
48945;SDS011;34999;50.940;3.998;2022-11-04T07:13:50;51.07;;;26.77;;
48945;SDS011;34999;50.940;3.998;2022-11-04T07:16:19;40.00;;;23.97;;
48945;SDS011;34999;50.940;3.998;2022-11-04T07:18:47;28.20;;;15.80;;
48945;SDS011;34999;50.940;3.998;2022-11-04T07:21:18;29.17;;;14.63;;
48945;SDS011;34999;50.940;3.998;2022-11-04T07:23:46;23.47;;;12.60;;
48945;SDS011;34999;50.940;3.998;2022-11-04T07:26:15;24.70;;;11.00;;
48945;SDS011;34999;50.940;3.998;2022-11-04T07:28:43;16.73;;;10.33;;
48945;SDS011;34999;50.940;3.998;2022-11-04T07:31:11;21.07;;;10.60;;
48945;SDS011;34999;50.940;3.998;2022-11-04T07:33:41;22.27;;;10.63;;
48945;SDS011;34999;50.940;3.998;2022-11-04T07:36:10;15.20;;;10.03;;
48945;SDS011;34999;50.940;3.998;2022-11-04T07:38:40;22.90;;;10.53;;
48945;SDS011;34999;50.940;3.998;2022-11-04T07:41:09;25.00;;;11.10;;
48945;SDS011;34999;50.940;3.998;2022-11-04T07:43:37;20.37;;;10.13;;
48945;SDS011;34999;50.940;3.998;2022-11-04T07:46:07;21.90;;;9.83;;
48945;SDS011;34999;50.940;3.998;2022-11-04T07:48:37;21.13;;;9.40;;
48945;SDS011;34999;50.940;3.998;2022-11-04T07:51:06;23.90;;;9.37;;
48945;SDS011;34999;50.940;3.998;2022-11-04T07:53:37;15.43;;;9.10;;
48945;SDS011;34999;50.940;3.998;2022-11-04T07:56:07;19.83;;;9.43;;
48945;SDS011;34999;50.940;3.998;2022-11-04T07:58:38;20.97;;;9.27;;
48945;SDS011;34999;50.940;3.998;2022-11-04T08:01:09;22.20;;;8.97;;
48945;SDS011;34999;50.940;3.998;2022-11-04T08:03:38;19.73;;;9.37;;
48945;SDS011;34999;50.940;3.998;2022-11-04T08:06:07;23.87;;;8.60;;
48945;SDS011;34999;50.940;3.998;2022-11-04T08:08:37;20.70;;;8.90;;
48945;SDS011;34999;50.940;3.998;2022-11-04T08:11:08;15.23;;;8.77;;
48945;SDS011;34999;50.940;3.998;2022-11-04T08:13:43;23.07;;;9.90;;
48945;SDS011;34999;50.940;3.998;2022-11-04T08:16:13;18.20;;;8.77;;
48945;SDS011;34999;50.940;3.998;2022-11-04T08:18:43;21.70;;;9.60;;
48945;SDS011;34999;50.940;3.998;2022-11-04T08:21:13;21.70;;;8.60;;
48945;SDS011;34999;50.940;3.998;2022-11-04T08:23:42;16.23;;;7.67;;
48945;SDS011;34999;50.940;3.998;2022-11-04T08:26:14;20.43;;;7.90;;
48945;SDS011;34999;50.940;3.998;2022-11-04T08:28:44;24.87;;;8.77;;
48945;SDS011;34999;50.940;3.998;2022-11-04T08:31:13;17.87;;;8.30;;
48945;SDS011;34999;50.940;3.998;2022-11-04T08:33:43;18.60;;;8.07;;
48945;SDS011;34999;50.940;3.998;2022-11-04T08:36:14;16.83;;;7.57;;
48945;SDS011;34999;50.940;3.998;2022-11-04T08:38:43;17.03;;;6.83;;
48945;SDS011;34999;50.940;3.998;2022-11-04T08:41:14;21.80;;;7.10;;
48945;SDS011;34999;50.940;3.998;2022-11-04T08:43:45;24.10;;;7.80;;
48945;SDS011;34999;50.940;3.998;2022-11-04T08:46:14;19.87;;;6.50;;
48945;SDS011;34999;50.940;3.998;2022-11-04T08:48:43;17.63;;;6.70;;
48945;SDS011;34999;50.940;3.998;2022-11-04T08:51:13;12.00;;;6.83;;
48945;SDS011;34999;50.940;3.998;2022-11-04T08:53:43;20.67;;;6.17;;
48945;SDS011;34999;50.940;3.998;2022-11-04T08:56:14;13.50;;;6.03;;
48945;SDS011;34999;50.940;3.998;2022-11-04T08:58:44;18.70;;;6.23;;
48945;SDS011;34999;50.940;3.998;2022-11-04T09:01:13;14.63;;;5.87;;
48945;SDS011;34999;50.940;3.998;2022-11-04T09:03:42;12.60;;;5.70;;
48945;SDS011;34999;50.940;3.998;2022-11-04T09:06:11;18.20;;;5.90;;
48945;SDS011;34999;50.940;3.998;2022-11-04T09:08:41;15.30;;;5.73;;
48945;SDS011;34999;50.940;3.998;2022-11-04T09:11:11;12.17;;;5.43;;
48945;SDS011;34999;50.940;3.998;2022-11-04T09:13:42;16.67;;;6.20;;
48945;SDS011;34999;50.940;3.998;2022-11-04T09:16:11;13.67;;;5.10;;
48945;SDS011;34999;50.940;3.998;2022-11-04T09:18:40;18.07;;;5.87;;
48945;SDS011;34999;50.940;3.998;2022-11-04T09:21:09;14.07;;;5.40;;
48945;SDS011;34999;50.940;3.998;2022-11-04T09:23:38;17.90;;;5.80;;
48945;SDS011;34999;50.940;3.998;2022-11-04T09:26:07;13.90;;;5.53;;
48945;SDS011;34999;50.940;3.998;2022-11-04T09:28:39;15.07;;;5.43;;
48945;SDS011;34999;50.940;3.998;2022-11-04T09:31:11;14.63;;;5.53;;
48945;SDS011;34999;50.940;3.998;2022-11-04T09:33:44;13.27;;;5.70;;
48945;SDS011;34999;50.940;3.998;2022-11-04T09:36:12;12.97;;;5.50;;
48945;SDS011;34999;50.940;3.998;2022-11-04T09:38:41;12.87;;;5.93;;
48945;SDS011;34999;50.940;3.998;2022-11-04T09:41:17;13.00;;;5.53;;
48945;SDS011;34999;50.940;3.998;2022-11-04T09:44:10;10.77;;;5.67;;
48945;SDS011;34999;50.940;3.998;2022-11-04T09:46:46;18.00;;;6.53;;
48945;SDS011;34999;50.940;3.998;2022-11-04T09:49:15;11.87;;;5.93;;
48945;SDS011;34999;50.940;3.998;2022-11-04T09:51:45;14.77;;;5.63;;
48945;SDS011;34999;50.940;3.998;2022-11-04T09:54:21;16.20;;;6.13;;
48945;SDS011;34999;50.940;3.998;2022-11-04T09:56:51;13.30;;;5.83;;
48945;SDS011;34999;50.940;3.998;2022-11-04T09:59:25;18.60;;;6.10;;
48945;SDS011;34999;50.940;3.998;2022-11-04T10:02:00;16.80;;;5.80;;
48945;SDS011;34999;50.940;3.998;2022-11-04T10:04:53;19.00;;;6.57;;
48945;SDS011;34999;50.940;3.998;2022-11-04T10:07:34;11.40;;;6.20;;
48945;SDS011;34999;50.940;3.998;2022-11-04T10:10:12;14.63;;;7.20;;
48945;SDS011;34999;50.940;3.998;2022-11-04T10:12:52;14.77;;;6.60;;
48945;SDS011;34999;50.940;3.998;2022-11-04T10:21:26;19.43;;;8.50;;
48945;SDS011;34999;50.940;3.998;2022-11-04T10:24:05;19.20;;;11.00;;
48945;SDS011;34999;50.940;3.998;2022-11-04T10:26:41;18.17;;;11.47;;
48945;SDS011;34999;50.940;3.998;2022-11-04T10:29:13;20.07;;;11.57;;
48945;SDS011;34999;50.940;3.998;2022-11-04T10:31:53;26.13;;;11.43;;
48945;SDS011;34999;50.940;3.998;2022-11-04T10:34:28;20.77;;;11.53;;
48945;SDS011;34999;50.940;3.998;2022-11-04T10:37:04;20.77;;;11.83;;
48945;SDS011;34999;50.940;3.998;2022-11-04T10:39:38;27.17;;;13.07;;
48945;SDS011;34999;50.940;3.998;2022-11-04T10:42:11;20.60;;;12.40;;
48945;SDS011;34999;50.940;3.998;2022-11-04T10:44:42;24.53;;;13.23;;
48945;SDS011;34999;50.940;3.998;2022-11-04T10:47:15;21.43;;;12.67;;
48945;SDS011;34999;50.940;3.998;2022-11-04T10:50:01;21.37;;;13.23;;
48945;SDS011;34999;50.940;3.998;2022-11-04T10:53:12;22.77;;;13.57;;
48945;SDS011;34999;50.940;3.998;2022-11-04T10:55:45;23.17;;;13.47;;
48945;SDS011;34999;50.940;3.998;2022-11-04T10:58:19;20.27;;;12.90;;
48945;SDS011;34999;50.940;3.998;2022-11-04T11:00:51;25.53;;;13.00;;
48945;SDS011;34999;50.940;3.998;2022-11-04T11:03:24;21.20;;;12.53;;
48945;SDS011;34999;50.940;3.998;2022-11-04T11:06:10;23.43;;;12.47;;
48945;SDS011;34999;50.940;3.998;2022-11-04T11:08:46;17.17;;;11.70;;
48945;SDS011;34999;50.940;3.998;2022-11-04T11:11:15;17.37;;;11.03;;
48945;SDS011;34999;50.940;3.998;2022-11-04T11:13:50;17.70;;;10.93;;
48945;SDS011;34999;50.940;3.998;2022-11-04T11:16:19;18.67;;;11.33;;
48945;SDS011;34999;50.940;3.998;2022-11-04T11:19:07;20.23;;;11.40;;
48945;SDS011;34999;50.940;3.998;2022-11-04T11:21:43;17.30;;;11.57;;
48945;SDS011;34999;50.940;3.998;2022-11-04T11:24:14;20.97;;;11.87;;
48945;SDS011;34999;50.940;3.998;2022-11-04T11:26:45;17.63;;;10.87;;
48945;SDS011;34999;50.940;3.998;2022-11-04T11:29:19;16.97;;;10.93;;
48945;SDS011;34999;50.940;3.998;2022-11-04T11:31:50;18.43;;;11.50;;
48945;SDS011;34999;50.940;3.998;2022-11-04T11:34:22;19.40;;;11.27;;
48945;SDS011;34999;50.940;3.998;2022-11-04T11:36:53;17.00;;;11.20;;
48945;SDS011;34999;50.940;3.998;2022-11-04T11:39:23;17.27;;;11.13;;
48945;SDS011;34999;50.940;3.998;2022-11-04T11:41:55;19.30;;;10.93;;
48945;SDS011;34999;50.940;3.998;2022-11-04T11:44:26;19.60;;;11.20;;
48945;SDS011;34999;50.940;3.998;2022-11-04T11:46:59;18.40;;;10.37;;
48945;SDS011;34999;50.940;3.998;2022-11-04T11:49:31;16.40;;;11.17;;
48945;SDS011;34999;50.940;3.998;2022-11-04T11:55:03;19.13;;;11.03;;
48945;SDS011;34999;50.940;3.998;2022-11-04T11:57:39;19.63;;;11.43;;
48945;SDS011;34999;50.940;3.998;2022-11-04T12:00:38;23.50;;;11.93;;
48945;SDS011;34999;50.940;3.998;2022-11-04T12:03:17;18.80;;;11.07;;
48945;SDS011;34999;50.940;3.998;2022-11-04T12:05:55;17.57;;;10.20;;
48945;SDS011;34999;50.940;3.998;2022-11-04T12:09:03;19.23;;;11.23;;
48945;SDS011;34999;50.940;3.998;2022-11-04T12:12:03;20.20;;;11.20;;
48945;SDS011;34999;50.940;3.998;2022-11-04T12:14:39;16.63;;;11.80;;
48945;SDS011;34999;50.940;3.998;2022-11-04T12:17:21;18.93;;;11.07;;
48945;SDS011;34999;50.940;3.998;2022-11-04T12:20:02;20.60;;;10.77;;
48945;SDS011;34999;50.940;3.998;2022-11-04T12:22:46;20.73;;;10.50;;
48945;SDS011;34999;50.940;3.998;2022-11-04T12:25:22;15.10;;;9.43;;
48945;SDS011;34999;50.940;3.998;2022-11-04T12:27:58;15.17;;;9.37;;
48945;SDS011;34999;50.940;3.998;2022-11-04T12:30:36;16.20;;;9.67;;
48945;SDS011;34999;50.940;3.998;2022-11-04T12:33:17;14.23;;;9.03;;
48945;SDS011;34999;50.940;3.998;2022-11-04T12:35:55;14.47;;;9.50;;
48945;SDS011;34999;50.940;3.998;2022-11-04T12:38:40;15.17;;;10.93;;
48945;SDS011;34999;50.940;3.998;2022-11-04T12:41:23;13.00;;;8.47;;
48945;SDS011;34999;50.940;3.998;2022-11-04T12:44:23;13.70;;;8.60;;
48945;SDS011;34999;50.940;3.998;2022-11-04T12:47:02;13.00;;;6.80;;
48945;SDS011;34999;50.940;3.998;2022-11-04T12:52:37;9.40;;;6.20;;
48945;SDS011;34999;50.940;3.998;2022-11-04T12:55:28;11.03;;;6.30;;
48945;SDS011;34999;50.940;3.998;2022-11-04T12:58:13;10.73;;;5.70;;
48945;SDS011;34999;50.940;3.998;2022-11-04T13:00:56;9.83;;;6.10;;
48945;SDS011;34999;50.940;3.998;2022-11-04T13:03:30;9.90;;;6.57;;
48945;SDS011;34999;50.940;3.998;2022-11-04T13:06:04;13.20;;;6.77;;
48945;SDS011;34999;50.940;3.998;2022-11-04T13:08:38;13.93;;;8.67;;
48945;SDS011;34999;50.940;3.998;2022-11-04T13:11:13;15.20;;;8.93;;
48945;SDS011;34999;50.940;3.998;2022-11-04T13:13:53;12.13;;;7.90;;
48945;SDS011;34999;50.940;3.998;2022-11-04T13:16:27;11.20;;;7.90;;
48945;SDS011;34999;50.940;3.998;2022-11-04T13:18:58;13.77;;;8.07;;
48945;SDS011;34999;50.940;3.998;2022-11-04T13:21:27;10.33;;;6.87;;
48945;SDS011;34999;50.940;3.998;2022-11-04T13:24:02;10.37;;;6.07;;
48945;SDS011;34999;50.940;3.998;2022-11-04T13:26:34;6.57;;;5.40;;
48945;SDS011;34999;50.940;3.998;2022-11-04T13:29:04;8.57;;;5.63;;
48945;SDS011;34999;50.940;3.998;2022-11-04T13:31:40;12.50;;;5.67;;
48945;SDS011;34999;50.940;3.998;2022-11-04T13:34:17;12.13;;;5.93;;
48945;SDS011;34999;50.940;3.998;2022-11-04T13:37:01;5.70;;;5.10;;
48945;SDS011;34999;50.940;3.998;2022-11-04T13:39:38;6.17;;;5.50;;
48945;SDS011;34999;50.940;3.998;2022-11-04T13:45:03;1.53;;;1.23;;
48945;SDS011;34999;50.940;3.998;2022-11-04T13:47:42;2.10;;;0.90;;
48945;SDS011;34999;50.940;3.998;2022-11-04T13:50:26;1.47;;;1.20;;
48945;SDS011;34999;50.940;3.998;2022-11-04T13:52:56;1.53;;;1.20;;
48945;SDS011;34999;50.940;3.998;2022-11-04T13:55:25;2.30;;;1.40;;
48945;SDS011;34999;50.940;3.998;2022-11-04T13:57:56;1.40;;;1.27;;
48945;SDS011;34999;50.940;3.998;2022-11-04T14:00:27;2.20;;;1.40;;
48945;SDS011;34999;50.940;3.998;2022-11-04T14:02:56;6.87;;;1.50;;
48945;SDS011;34999;50.940;3.998;2022-11-04T14:08:29;1.50;;;1.40;;
48945;SDS011;34999;50.940;3.998;2022-11-04T14:11:09;1.50;;;1.40;;
48945;SDS011;34999;50.940;3.998;2022-11-04T14:13:43;4.10;;;1.47;;
48945;SDS011;34999;50.940;3.998;2022-11-04T14:16:39;2.87;;;1.47;;
48945;SDS011;34999;50.940;3.998;2022-11-04T14:22:35;2.87;;;1.70;;
48945;SDS011;34999;50.940;3.998;2022-11-04T14:25:17;2.67;;;1.70;;
48945;SDS011;34999;50.940;3.998;2022-11-04T14:27:52;3.13;;;1.73;;
48945;SDS011;34999;50.940;3.998;2022-11-04T14:36:29;3.47;;;2.73;;
48945;SDS011;34999;50.940;3.998;2022-11-04T14:39:03;1.97;;;1.83;;
48945;SDS011;34999;50.940;3.998;2022-11-04T14:41:53;2.47;;;1.80;;
48945;SDS011;34999;50.940;3.998;2022-11-04T14:44:31;1.90;;;1.80;;
48945;SDS011;34999;50.940;3.998;2022-11-04T14:47:06;3.83;;;2.13;;
48945;SDS011;34999;50.940;3.998;2022-11-04T14:49:45;1.90;;;1.80;;
48945;SDS011;34999;50.940;3.998;2022-11-04T14:52:16;5.50;;;2.30;;
48945;SDS011;34999;50.940;3.998;2022-11-04T14:54:48;3.40;;;2.10;;
48945;SDS011;34999;50.940;3.998;2022-11-04T14:57:21;6.60;;;1.97;;
48945;SDS011;34999;50.940;3.998;2022-11-04T14:59:50;3.63;;;2.03;;
48945;SDS011;34999;50.940;3.998;2022-11-04T15:02:22;3.63;;;2.13;;
48945;SDS011;34999;50.940;3.998;2022-11-04T15:04:54;4.63;;;2.20;;
48945;SDS011;34999;50.940;3.998;2022-11-04T15:07:27;3.23;;;2.00;;
48945;SDS011;34999;50.940;3.998;2022-11-04T15:10:00;2.67;;;1.80;;
48945;SDS011;34999;50.940;3.998;2022-11-04T15:12:31;4.10;;;1.70;;
48945;SDS011;34999;50.940;3.998;2022-11-04T15:15:24;3.23;;;1.87;;
48945;SDS011;34999;50.940;3.998;2022-11-04T15:17:57;3.17;;;2.00;;
48945;SDS011;34999;50.940;3.998;2022-11-04T15:20:28;1.77;;;1.50;;
48945;SDS011;34999;50.940;3.998;2022-11-04T15:22:59;3.07;;;1.70;;
48945;SDS011;34999;50.940;3.998;2022-11-04T15:25:32;5.53;;;1.83;;
48945;SDS011;34999;50.940;3.998;2022-11-04T15:28:00;2.90;;;1.90;;
48945;SDS011;34999;50.940;3.998;2022-11-04T15:30:28;2.57;;;1.70;;
48945;SDS011;34999;50.940;3.998;2022-11-04T15:32:59;3.70;;;1.60;;
48945;SDS011;34999;50.940;3.998;2022-11-04T15:35:29;3.07;;;1.70;;
48945;SDS011;34999;50.940;3.998;2022-11-04T15:38:00;1.57;;;1.53;;
48945;SDS011;34999;50.940;3.998;2022-11-04T15:40:29;4.93;;;1.50;;
48945;SDS011;34999;50.940;3.998;2022-11-04T15:42:59;6.63;;;2.13;;
48945;SDS011;34999;50.940;3.998;2022-11-04T15:45:34;3.37;;;1.63;;